Time;durP1;ratioP1;P1;durP2;ratioP2;P2;SDS_P1;SDS_P2;PMS_P1;PMS_P2;Temp;Humidity;BMP_temperature;BMP_pressure;BME280_temperature;BME280_humidity;BME280_pressure;Samples;Min_cycle;Max_cycle;Signal;HPM_P1;HPM_P2
2021/03/13 00:07:29;;;;;;;7.75;5.72;;;;;;;;;;4069741;32;20091;-55
2021/03/13 00:09:55;;;;;;;9.73;5.62;;;;;;;;;;4177185;34;20116;-55
2021/03/13 00:12:21;;;;;;;6.85;5.43;;;;;;;;;;4177174;34;20186;-53
2021/03/13 00:14:47;;;;;;;11.02;5.78;;;;;;;;;;4164686;34;20125;-52
2021/03/13 00:17:13;;;;;;;6.03;5.07;;;;;;;;;;4177115;34;20129;-55
2021/03/13 00:19:39;;;;;;;6.90;5.40;;;;;;;;;;4176766;34;20221;-49
2021/03/13 00:22:05;;;;;;;8.77;5.28;;;;;;;;;;4176951;34;20979;-51
2021/03/13 00:24:31;;;;;;;8.50;5.35;;;;;;;;;;4164484;34;20126;-49
2021/03/13 00:26:57;;;;;;;6.43;4.97;;;;;;;;;;4177125;34;20106;-53
2021/03/13 00:29:23;;;;;;;7.12;5.22;;;;;;;;;;4164565;34;20517;-50
2021/03/13 00:31:53;;;;;;;7.68;5.30;;;;;;;;;;4164436;34;20114;-51
2021/03/13 00:34:20;;;;;;;6.10;4.62;;;;;;;;;;4177059;34;20228;-50
2021/03/13 00:36:49;;;;;;;6.18;4.70;;;;;;;;;;4176963;34;20169;-54
2021/03/13 00:39:16;;;;;;;6.40;4.68;;;;;;;;;;4177021;34;20098;-52
2021/03/13 00:41:42;;;;;;;7.00;5.03;;;;;;;;;;4176695;34;20107;-52
2021/03/13 00:44:08;;;;;;;7.03;4.97;;;;;;;;;;4176837;34;20114;-52
2021/03/13 00:46:35;;;;;;;5.05;4.37;;;;;;;;;;4164462;34;20263;-52
2021/03/13 00:49:01;;;;;;;8.18;5.62;;;;;;;;;;4164135;34;20166;-52
2021/03/13 00:51:27;;;;;;;7.00;5.03;;;;;;;;;;4177080;34;20575;-53
2021/03/13 00:53:52;;;;;;;5.70;4.70;;;;;;;;;;4176791;34;20106;-53
2021/03/13 00:56:19;;;;;;;7.40;4.95;;;;;;;;;;4176733;34;20122;-52
2021/03/13 00:58:45;;;;;;;7.00;5.30;;;;;;;;;;4176740;34;20218;-53
2021/03/13 01:01:11;;;;;;;6.95;4.87;;;;;;;;;;4163950;34;20185;-52
2021/03/13 01:03:37;;;;;;;7.00;5.00;;;;;;;;;;4176716;34;20125;-53
2021/03/13 01:06:04;;;;;;;8.88;5.10;;;;;;;;;;4176336;34;20095;-55
2021/03/13 01:08:30;;;;;;;5.47;4.75;;;;;;;;;;4176782;34;20107;-53
2021/03/13 01:10:56;;;;;;;7.35;4.93;;;;;;;;;;4176481;34;20118;-52
2021/03/13 01:13:22;;;;;;;6.80;4.75;;;;;;;;;;4164138;34;20235;-50
2021/03/13 01:15:47;;;;;;;6.90;4.68;;;;;;;;;;4176600;34;20549;-52
2021/03/13 01:18:13;;;;;;;5.78;4.70;;;;;;;;;;4176657;34;20114;-52
2021/03/13 01:20:40;;;;;;;6.60;4.55;;;;;;;;;;4176341;34;20486;-53
2021/03/13 01:23:06;;;;;;;7.40;4.40;;;;;;;;;;4176475;34;20206;-52
2021/03/13 01:25:32;;;;;;;8.00;5.18;;;;;;;;;;4176433;34;20567;-52
2021/03/13 01:27:58;;;;;;;5.30;4.30;;;;;;;;;;4176460;34;20141;-52
2021/03/13 01:30:24;;;;;;;6.72;4.93;;;;;;;;;;4177898;34;20138;-53
2021/03/13 01:32:51;;;;;;;8.00;4.85;;;;;;;;;;4178647;34;20126;-54
2021/03/13 01:35:17;;;;;;;8.27;5.20;;;;;;;;;;4178459;34;20636;-52
2021/03/13 01:37:42;;;;;;;6.12;4.50;;;;;;;;;;4178545;34;20133;-54
2021/03/13 01:40:16;;;;;;;8.75;4.70;;;;;;;;;;4165953;34;20526;-51
2021/03/13 01:42:43;;;;;;;5.65;4.45;;;;;;;;;;4178497;34;20201;-50
2021/03/13 01:45:09;;;;;;;5.62;4.40;;;;;;;;;;4178415;34;20109;-52
2021/03/13 01:47:35;;;;;;;5.70;4.50;;;;;;;;;;4178706;34;20458;-51
2021/03/13 01:50:01;;;;;;;6.47;4.80;;;;;;;;;;4165640;34;20119;-53
2021/03/13 01:52:27;;;;;;;5.65;4.65;;;;;;;;;;4165729;34;20137;-53
2021/03/13 01:54:53;;;;;;;8.02;4.57;;;;;;;;;;4178338;34;20230;-55
2021/03/13 01:57:19;;;;;;;5.90;5.07;;;;;;;;;;4178667;34;20352;-52
2021/03/13 01:59:46;;;;;;;7.07;5.03;;;;;;;;;;4178284;34;20145;-53
2021/03/13 02:02:13;;;;;;;8.10;5.32;;;;;;;;;;4178280;34;20122;-52
2021/03/13 02:04:39;;;;;;;8.32;5.32;;;;;;;;;;4178307;34;20272;-51
2021/03/13 02:07:22;;;;;;;9.95;5.40;;;;;;;;;;4165351;34;20098;-50
2021/03/13 02:10:09;;;;;;;9.05;5.32;;;;;;;;;;4166663;34;20123;-52
2021/03/13 02:12:54;;;;;;;6.07;4.95;;;;;;;;;;4178488;34;20110;-51
2021/03/13 02:15:49;;;;;;;9.70;5.25;;;;;;;;;;4178109;34;20128;-52
2021/03/13 02:18:53;;;;;;;6.70;5.00;;;;;;;;;;4165553;34;20120;-53
2021/03/13 02:21:24;;;;;;;6.20;4.35;;;;;;;;;;4178376;34;20126;-53
2021/03/13 02:23:53;;;;;;;5.65;4.57;;;;;;;;;;4165754;34;20130;-52
2021/03/13 02:26:37;;;;;;;8.68;4.82;;;;;;;;;;4178081;34;20499;-52
2021/03/13 02:29:15;;;;;;;6.22;4.75;;;;;;;;;;4178147;34;20211;-54
2021/03/13 02:31:44;;;;;;;7.43;5.00;;;;;;;;;;4165213;34;20573;-54
2021/03/13 02:34:10;;;;;;;10.30;5.43;;;;;;;;;;4154526;34;20118;-51
2021/03/13 02:36:35;;;;;;;7.45;4.62;;;;;;;;;;4165395;34;20152;-54
2021/03/13 02:39:05;;;;;;;6.45;5.18;;;;;;;;;;4154114;34;20221;-51
2021/03/13 02:41:34;;;;;;;8.15;5.68;;;;;;;;;;4164803;34;20186;-53
2021/03/13 02:44:02;;;;;;;7.87;5.10;;;;;;;;;;4165498;34;20141;-53
2021/03/13 02:46:27;;;;;;;7.85;5.45;;;;;;;;;;4178224;34;20202;-50
2021/03/13 02:48:54;;;;;;;7.65;5.37;;;;;;;;;;4153959;34;20095;-52
2021/03/13 02:51:21;;;;;;;6.15;5.07;;;;;;;;;;4178093;34;20106;-53
2021/03/13 02:53:47;;;;;;;7.28;4.97;;;;;;;;;;4165529;34;20224;-52
2021/03/13 02:56:14;;;;;;;7.85;4.95;;;;;;;;;;4165152;34;20253;-54
2021/03/13 02:58:40;;;;;;;7.30;5.40;;;;;;;;;;4154348;34;20458;-51
2021/03/13 03:01:06;;;;;;;6.65;5.15;;;;;;;;;;4164889;34;20109;-52
2021/03/13 03:03:32;;;;;;;6.25;4.80;;;;;;;;;;4153841;34;20455;-55
2021/03/13 03:05:58;;;;;;;6.30;5.22;;;;;;;;;;4153558;34;20106;-53
2021/03/13 03:08:24;;;;;;;6.72;5.10;;;;;;;;;;4165178;34;20129;-53
2021/03/13 03:10:50;;;;;;;6.55;4.95;;;;;;;;;;4164979;34;20129;-54
2021/03/13 03:13:16;;;;;;;8.38;5.55;;;;;;;;;;4177814;34;20213;-53
2021/03/13 03:15:42;;;;;;;6.97;5.30;;;;;;;;;;4177671;34;20136;-55
2021/03/13 03:18:11;;;;;;;6.53;4.90;;;;;;;;;;4165097;34;20545;-52
2021/03/13 03:20:37;;;;;;;9.07;5.10;;;;;;;;;;4165148;34;20127;-53
2021/03/13 03:23:03;;;;;;;8.02;5.78;;;;;;;;;;4177693;34;20721;-53
2021/03/13 03:25:29;;;;;;;8.18;5.00;;;;;;;;;;4165096;34;20121;-53
2021/03/13 03:27:55;;;;;;;5.53;5.03;;;;;;;;;;4177849;34;20115;-53
2021/03/13 03:30:26;;;;;;;5.90;4.70;;;;;;;;;;4177788;34;20146;-53
2021/03/13 03:32:53;;;;;;;5.55;4.72;;;;;;;;;;4177671;34;20507;-56
2021/03/13 03:35:20;;;;;;;7.65;5.30;;;;;;;;;;4177598;34;20135;-53
2021/03/13 03:37:46;;;;;;;5.97;4.85;;;;;;;;;;4177829;34;20238;-51
2021/03/13 03:40:14;;;;;;;7.15;5.03;;;;;;;;;;4153427;34;20122;-53
2021/03/13 03:42:50;;;;;;;8.10;5.00;;;;;;;;;;4165233;34;20475;-53
2021/03/13 03:45:18;;;;;;;5.55;4.65;;;;;;;;;;4165332;34;20137;-54
2021/03/13 03:47:45;;;;;;;7.37;4.93;;;;;;;;;;4164805;34;20515;-54
2021/03/13 03:50:11;;;;;;;6.55;4.70;;;;;;;;;;4153576;34;20547;-51
2021/03/13 03:52:37;;;;;;;8.32;4.80;;;;;;;;;;4164462;34;20630;-53
2021/03/13 03:55:03;;;;;;;5.78;4.20;;;;;;;;;;4153322;34;20122;-53
2021/03/13 03:57:29;;;;;;;7.10;5.12;;;;;;;;;;4164804;34;20129;-53
2021/03/13 03:59:56;;;;;;;6.28;4.82;;;;;;;;;;4164600;34;20129;-52
2021/03/13 04:02:24;;;;;;;6.78;5.15;;;;;;;;;;4153409;34;20098;-53
2021/03/13 04:04:50;;;;;;;5.75;4.80;;;;;;;;;;4164597;34;20462;-53
2021/03/13 04:07:16;;;;;;;6.40;5.00;;;;;;;;;;4164438;34;20137;-52
2021/03/13 04:09:42;;;;;;;6.78;4.90;;;;;;;;;;4164608;34;20215;-52
2021/03/13 04:12:09;;;;;;;7.97;4.93;;;;;;;;;;4153144;34;20119;-52
2021/03/13 04:14:35;;;;;;;7.30;5.43;;;;;;;;;;4153381;34;20128;-53
2021/03/13 04:17:01;;;;;;;7.12;4.97;;;;;;;;;;4153483;34;20280;-53
2021/03/13 04:19:27;;;;;;;6.60;4.85;;;;;;;;;;4153248;34;20122;-51
2021/03/13 04:21:53;;;;;;;6.65;5.35;;;;;;;;;;4164360;34;20111;-54
2021/03/13 04:24:19;;;;;;;5.28;4.55;;;;;;;;;;4153391;34;20326;-53
2021/03/13 04:26:44;;;;;;;7.78;4.60;;;;;;;;;;4164432;34;20542;-52
2021/03/13 04:29:10;;;;;;;7.70;4.62;;;;;;;;;;4164348;34;20132;-54
2021/03/13 04:31:36;;;;;;;6.97;4.97;;;;;;;;;;4164470;34;20773;-53
2021/03/13 04:34:03;;;;;;;6.78;5.37;;;;;;;;;;4153263;34;20098;-53
2021/03/13 04:36:30;;;;;;;6.85;5.25;;;;;;;;;;4177068;34;20210;-53
2021/03/13 04:38:57;;;;;;;7.60;5.20;;;;;;;;;;4153160;34;20528;-54
2021/03/13 04:41:23;;;;;;;8.00;5.62;;;;;;;;;;4152981;34;20466;-53
2021/03/13 04:43:49;;;;;;;7.72;5.95;;;;;;;;;;4153322;34;20099;-53
2021/03/13 04:46:14;;;;;;;12.57;7.70;;;;;;;;;;4152818;34;20447;-54
2021/03/13 04:48:40;;;;;;;7.55;6.75;;;;;;;;;;4164009;34;20111;-53
2021/03/13 04:51:06;;;;;;;11.23;8.45;;;;;;;;;;4152859;34;20142;-56
2021/03/13 04:53:33;;;;;;;8.50;6.45;;;;;;;;;;4163962;34;20127;-55
2021/03/13 04:55:59;;;;;;;8.57;6.53;;;;;;;;;;4176664;34;20122;-53
2021/03/13 04:58:25;;;;;;;7.60;6.03;;;;;;;;;;4176922;34;20133;-52
2021/03/13 05:00:54;;;;;;;9.20;5.82;;;;;;;;;;4163872;34;20134;-56
2021/03/13 05:03:20;;;;;;;7.18;5.20;;;;;;;;;;4176596;34;20101;-53
2021/03/13 05:05:46;;;;;;;6.28;4.90;;;;;;;;;;4178243;34;20111;-56
2021/03/13 05:08:12;;;;;;;7.65;5.25;;;;;;;;;;4178721;34;20121;-53
2021/03/13 05:10:37;;;;;;;6.43;4.90;;;;;;;;;;4178691;34;20131;-55
2021/03/13 05:13:04;;;;;;;7.82;5.60;;;;;;;;;;4178624;34;20566;-56
2021/03/13 05:15:29;;;;;;;10.00;5.70;;;;;;;;;;4178834;34;20233;-54
2021/03/13 05:17:55;;;;;;;7.25;5.43;;;;;;;;;;4178656;34;20556;-53
2021/03/13 05:20:21;;;;;;;8.48;5.30;;;;;;;;;;4178535;34;20242;-52
2021/03/13 05:22:50;;;;;;;7.93;5.78;;;;;;;;;;4178708;34;20191;-54
2021/03/13 05:25:20;;;;;;;6.32;4.87;;;;;;;;;;4165953;34;20133;-54
2021/03/13 05:27:46;;;;;;;7.25;5.20;;;;;;;;;;4178517;34;20095;-58
2021/03/13 05:30:12;;;;;;;8.52;5.62;;;;;;;;;;4178287;34;21151;-59
2021/03/13 05:32:38;;;;;;;5.97;4.78;;;;;;;;;;4178380;34;20141;-56
2021/03/13 05:35:06;;;;;;;9.32;5.78;;;;;;;;;;4178156;34;20199;-57
2021/03/13 05:37:32;;;;;;;6.97;5.32;;;;;;;;;;4178660;34;20118;-58
2021/03/13 05:39:58;;;;;;;7.47;6.35;;;;;;;;;;4178316;34;20115;-57
2021/03/13 05:42:25;;;;;;;9.05;6.47;;;;;;;;;;4178269;34;20132;-57
2021/03/13 05:44:52;;;;;;;10.27;6.10;;;;;;;;;;4165951;34;20145;-55
2021/03/13 05:47:20;;;;;;;8.75;5.78;;;;;;;;;;4165546;34;20131;-53
2021/03/13 05:49:45;;;;;;;9.07;6.00;;;;;;;;;;4165630;34;20561;-54
2021/03/13 05:52:11;;;;;;;8.27;5.57;;;;;;;;;;4153570;34;20102;-54
2021/03/13 05:54:37;;;;;;;9.82;6.25;;;;;;;;;;4165649;34;20191;-58
2021/03/13 05:57:07;;;;;;;7.65;4.70;;;;;;;;;;4165388;34;20510;-59
2021/03/13 05:59:33;;;;;;;6.82;4.95;;;;;;;;;;4178304;34;20182;-59
2021/03/13 06:02:00;;;;;;;5.93;4.90;;;;;;;;;;4177799;34;20177;-59
2021/03/13 06:04:26;;;;;;;6.85;5.30;;;;;;;;;;4154177;34;20101;-59
2021/03/13 06:06:52;;;;;;;6.93;4.65;;;;;;;;;;4165012;34;20130;-56
2021/03/13 06:09:19;;;;;;;8.48;5.18;;;;;;;;;;4165479;34;20456;-57
2021/03/13 06:11:44;;;;;;;9.52;5.60;;;;;;;;;;4165318;34;20125;-58
2021/03/13 06:14:10;;;;;;;7.30;5.70;;;;;;;;;;4178304;34;20102;-58
2021/03/13 06:16:37;;;;;;;6.32;5.18;;;;;;;;;;4178107;34;20118;-58
2021/03/13 06:19:03;;;;;;;10.05;5.05;;;;;;;;;;4154144;34;20526;-58
2021/03/13 06:21:34;;;;;;;7.65;5.43;;;;;;;;;;4177885;34;20186;-59
2021/03/13 06:24:01;;;;;;;7.55;4.95;;;;;;;;;;4177934;34;20125;-58
2021/03/13 06:26:29;;;;;;;6.05;5.30;;;;;;;;;;4177818;34;20537;-59
2021/03/13 06:28:56;;;;;;;6.55;5.15;;;;;;;;;;4177907;34;20134;-59
2021/03/13 06:31:26;;;;;;;6.40;5.28;;;;;;;;;;4178158;34;20099;-57
2021/03/13 06:33:52;;;;;;;5.75;5.12;;;;;;;;;;4177883;34;20117;-58
2021/03/13 06:36:23;;;;;;;8.52;5.68;;;;;;;;;;4178112;34;20099;-57
2021/03/13 06:38:49;;;;;;;8.50;5.72;;;;;;;;;;4178250;34;20129;-57
2021/03/13 06:41:23;;;;;;;7.40;5.60;;;;;;;;;;4165306;34;20205;-57
2021/03/13 06:43:58;;;;;;;6.35;4.93;;;;;;;;;;4178231;34;20539;-57
2021/03/13 06:46:30;;;;;;;;;;;;;;;;;;4178222;34;20107;-57
2021/03/13 06:48:57;;;;;;;6.03;5.43;;;;;;;;;;4174729;34;19997;-61
2021/03/13 06:51:38;;;;;;;6.03;5.05;;;;;;;;;;4177364;34;20122;-58
2021/03/13 06:54:11;;;;;;;8.27;5.87;;;;;;;;;;4177592;34;20602;-58
2021/03/13 06:57:01;;;;;;;6.95;5.75;;;;;;;;;;4177807;34;20194;-54
2021/03/13 06:59:34;;;;;;;8.38;4.78;;;;;;;;;;4164915;34;20514;-55
2021/03/13 07:02:06;;;;;;;6.87;5.28;;;;;;;;;;4177281;34;20239;-59
2021/03/13 07:04:38;;;;;;;6.12;4.97;;;;;;;;;;4177372;34;20244;-53
2021/03/13 07:07:05;;;;;;;6.37;4.90;;;;;;;;;;4176980;34;20197;-56
2021/03/13 07:09:51;;;;;;;6.90;5.10;;;;;;;;;;4177229;34;20126;-54
2021/03/13 07:12:24;;;;;;;5.87;4.97;;;;;;;;;;4177135;34;20202;-53
2021/03/13 07:14:51;;;;;;;7.62;6.78;;;;;;;;;;4177424;34;20099;-54
2021/03/13 07:17:17;;;;;;;6.47;4.97;;;;;;;;;;4177752;34;20527;-56
2021/03/13 07:19:43;;;;;;;5.00;4.35;;;;;;;;;;4164530;34;20230;-54
2021/03/13 07:22:10;;;;;;;6.60;4.35;;;;;;;;;;4175923;34;20149;-56
2021/03/13 07:24:37;;;;;;;5.10;4.55;;;;;;;;;;4162422;34;20518;-55
2021/03/13 07:27:04;;;;;;;8.63;5.72;;;;;;;;;;4157399;34;20118;-55
2021/03/13 07:29:30;;;;;;;7.82;5.50;;;;;;;;;;4170600;34;20133;-55
2021/03/13 07:31:58;;;;;;;6.60;5.00;;;;;;;;;;4164708;34;20569;-55
2021/03/13 07:34:26;;;;;;;6.43;4.55;;;;;;;;;;4165247;34;20106;-55
2021/03/13 07:36:54;;;;;;;7.93;4.90;;;;;;;;;;4164916;34;20090;-55
2021/03/13 07:39:26;;;;;;;5.65;5.05;;;;;;;;;;4177348;34;20185;-55
2021/03/13 07:42:00;;;;;;;6.55;4.62;;;;;;;;;;4177089;34;20122;-54
2021/03/13 07:44:26;;;;;;;6.32;5.15;;;;;;;;;;4164904;34;20122;-55
2021/03/13 07:46:53;;;;;;;6.80;4.60;;;;;;;;;;4164653;34;20457;-54
2021/03/13 07:49:19;;;;;;;6.40;4.37;;;;;;;;;;4177350;34;20102;-54
2021/03/13 07:51:45;;;;;;;8.88;5.00;;;;;;;;;;4151013;34;20191;-54
2021/03/13 07:54:11;;;;;;;7.05;5.00;;;;;;;;;;4152445;34;20107;-55
2021/03/13 07:56:43;;;;;;;5.87;5.25;;;;;;;;;;4153372;34;20102;-54
2021/03/13 07:59:10;;;;;;;5.75;5.15;;;;;;;;;;4172815;34;20109;-55
2021/03/13 08:01:49;;;;;;;8.75;4.85;;;;;;;;;;4177445;34;20500;-55
2021/03/13 08:04:38;;;;;;;6.28;4.80;;;;;;;;;;4177295;34;20098;-55
2021/03/13 08:07:05;;;;;;;5.53;4.90;;;;;;;;;;4170311;34;20106;-56
2021/03/13 08:09:31;;;;;;;5.70;4.72;;;;;;;;;;4177246;34;20105;-56
2021/03/13 08:11:59;;;;;;;6.78;4.43;;;;;;;;;;4177095;34;20554;-56
2021/03/13 08:14:32;;;;;;;5.95;5.10;;;;;;;;;;4177016;34;20122;-56
2021/03/13 08:17:10;;;;;;;7.60;4.55;;;;;;;;;;4177073;34;20198;-56
2021/03/13 08:19:38;;;;;;;8.55;4.10;;;;;;;;;;4177032;34;20176;-56
2021/03/13 08:22:23;;;;;;;6.80;4.72;;;;;;;;;;4176663;34;20197;-56
2021/03/13 08:24:50;;;;;;;6.12;4.30;;;;;;;;;;4177270;34;20451;-56
2021/03/13 08:27:38;;;;;;;9.15;5.30;;;;;;;;;;4177034;34;20133;-57
2021/03/13 08:30:25;;;;;;;5.97;5.18;;;;;;;;;;4176874;34;20114;-57
2021/03/13 08:33:09;;;;;;;8.85;5.10;;;;;;;;;;4176895;34;20118;-56
2021/03/13 08:35:36;;;;;;;7.55;5.35;;;;;;;;;;4177305;34;20130;-57
2021/03/13 08:38:03;;;;;;;6.00;5.30;;;;;;;;;;4176653;34;20175;-57
2021/03/13 08:40:30;;;;;;;6.18;4.53;;;;;;;;;;4176237;34;20145;-56
2021/03/13 08:42:56;;;;;;;6.00;4.37;;;;;;;;;;4176744;34;20534;-57
2021/03/13 08:45:23;;;;;;;4.20;3.72;;;;;;;;;;4176939;34;20095;-56
2021/03/13 08:47:53;;;;;;;6.75;5.55;;;;;;;;;;4176959;34;20102;-56
2021/03/13 08:50:44;;;;;;;6.07;4.57;;;;;;;;;;4176532;34;20102;-56
2021/03/13 08:53:28;;;;;;;6.60;4.75;;;;;;;;;;4176365;34;20142;-58
2021/03/13 08:55:54;;;;;;;7.28;4.55;;;;;;;;;;4176458;34;20466;-56
2021/03/13 08:58:39;;;;;;;5.45;3.92;;;;;;;;;;4163900;34;20134;-57
2021/03/13 09:01:21;;;;;;;5.10;4.57;;;;;;;;;;4176460;34;20550;-56
2021/03/13 09:03:51;;;;;;;6.30;4.93;;;;;;;;;;4173098;34;20099;-56
2021/03/13 09:06:18;;;;;;;5.68;4.20;;;;;;;;;;4163028;34;20119;-56
2021/03/13 09:08:44;;;;;;;5.40;4.45;;;;;;;;;;4166266;34;20129;-56
2021/03/13 09:11:10;;;;;;;5.57;4.35;;;;;;;;;;4163980;34;20102;-57
2021/03/13 09:13:36;;;;;;;7.87;4.85;;;;;;;;;;4176168;34;20130;-55
2021/03/13 09:16:16;;;;;;;5.32;4.37;;;;;;;;;;4176522;34;20534;-56
2021/03/13 09:18:53;;;;;;;7.05;4.82;;;;;;;;;;4176385;34;20129;-56
2021/03/13 09:21:37;;;;;;;10.30;5.15;;;;;;;;;;4176425;34;20106;-55
2021/03/13 09:24:05;;;;;;;5.50;4.22;;;;;;;;;;4176175;34;20113;-57
2021/03/13 09:26:31;;;;;;;4.75;4.28;;;;;;;;;;4176346;34;20622;-56
2021/03/13 09:28:57;;;;;;;6.25;5.00;;;;;;;;;;4176285;34;20444;-57
2021/03/13 09:31:23;;;;;;;5.12;4.62;;;;;;;;;;4176630;34;20289;-57
2021/03/13 09:33:50;;;;;;;9.38;5.40;;;;;;;;;;4176059;34;20130;-56
2021/03/13 09:36:16;;;;;;;8.65;5.47;;;;;;;;;;4176248;34;20095;-56
2021/03/13 09:38:56;;;;;;;8.20;5.40;;;;;;;;;;4176426;34;20527;-56
2021/03/13 09:41:22;;;;;;;7.60;5.62;;;;;;;;;;4176283;34;20094;-57
2021/03/13 09:43:48;;;;;;;7.37;5.37;;;;;;;;;;4175990;34;20160;-56
2021/03/13 09:46:16;;;;;;;6.87;4.62;;;;;;;;;;4176177;34;20115;-55
2021/03/13 09:48:41;;;;;;;5.32;4.82;;;;;;;;;;4176141;34;20114;-55
2021/03/13 09:51:08;;;;;;;5.53;4.87;;;;;;;;;;4177816;34;20145;-57
2021/03/13 09:53:34;;;;;;;7.78;5.07;;;;;;;;;;4178286;34;20238;-54
2021/03/13 09:56:00;;;;;;;7.53;4.50;;;;;;;;;;4178218;34;20516;-55
2021/03/13 09:58:25;;;;;;;7.45;4.95;;;;;;;;;;4165345;34;20114;-55
2021/03/13 10:00:51;;;;;;;6.00;4.22;;;;;;;;;;4178150;34;20130;-55
2021/03/13 10:03:17;;;;;;;6.97;5.28;;;;;;;;;;4165726;34;20106;-55
2021/03/13 10:05:43;;;;;;;6.57;5.12;;;;;;;;;;4165430;34;20121;-55
2021/03/13 10:08:13;;;;;;;6.12;5.45;;;;;;;;;;4165476;34;20130;-57
2021/03/13 10:10:42;;;;;;;6.97;5.28;;;;;;;;;;4178521;34;20110;-57
2021/03/13 10:13:08;;;;;;;6.68;4.82;;;;;;;;;;4178088;34;20098;-54
2021/03/13 10:15:35;;;;;;;6.18;4.65;;;;;;;;;;4178085;34;20146;-53
2021/03/13 10:18:01;;;;;;;5.68;5.03;;;;;;;;;;4178138;34;20133;-55
2021/03/13 10:20:38;;;;;;;7.97;6.93;;;;;;;;;;4177998;34;20625;-54
2021/03/13 10:23:04;;;;;;;6.05;5.45;;;;;;;;;;4178213;34;20218;-54
2021/03/13 10:25:30;;;;;;;6.32;5.35;;;;;;;;;;4177884;34;20178;-54
2021/03/13 10:28:16;;;;;;;6.40;5.25;;;;;;;;;;4178115;34;20205;-54
2021/03/13 10:30:42;;;;;;;;;;;;;;;;;;4178065;34;20106;-55
2021/03/13 10:33:08;;;;;;;;;;;;;;;;;;4178426;34;20002;-54
2021/03/13 10:35:34;;;;;;;9.15;5.82;;;;;;;;;;4177966;34;20367;-55
2021/03/13 10:38:09;;;;;;;9.82;7.93;;;;;;;;;;4177975;34;20102;-55
2021/03/13 10:40:46;;;;;;;14.75;11.10;;;;;;;;;;4177954;34;20122;-55
2021/03/13 10:43:35;;;;;;;7.43;5.78;;;;;;;;;;4177957;34;20222;-56
2021/03/13 10:46:04;;;;;;;8.25;6.30;;;;;;;;;;4165036;34;20103;-55
2021/03/13 10:48:31;;;;;;;7.12;6.40;;;;;;;;;;4177605;34;20495;-55
2021/03/13 10:50:57;;;;;;;9.75;6.30;;;;;;;;;;4177804;34;20125;-58
2021/03/13 10:53:53;;;;;;;12.45;11.15;;;;;;;;;;4177424;34;20107;-54
2021/03/13 10:56:19;;;;;;;17.80;10.82;;;;;;;;;;4171611;34;20119;-55
2021/03/13 10:58:51;;;;;;;13.23;9.88;;;;;;;;;;4177916;34;20102;-55
2021/03/13 11:01:18;;;;;;;8.13;6.10;;;;;;;;;;4177126;34;20563;-58
2021/03/13 11:03:45;;;;;;;7.57;6.07;;;;;;;;;;4176570;34;20233;-55
2021/03/13 11:06:12;;;;;;;9.43;8.00;;;;;;;;;;4177283;34;20146;-55
2021/03/13 11:08:38;;;;;;;6.53;5.75;;;;;;;;;;4177594;34;20531;-54
2021/03/13 11:11:04;;;;;;;7.65;6.78;;;;;;;;;;4165154;34;20130;-55
2021/03/13 11:13:30;;;;;;;7.90;6.45;;;;;;;;;;4177689;34;20098;-57
2021/03/13 11:15:56;;;;;;;7.20;5.78;;;;;;;;;;4177447;34;20122;-54
2021/03/13 11:18:22;;;;;;;8.45;6.50;;;;;;;;;;4177590;34;20542;-54
2021/03/13 11:20:49;;;;;;;7.85;6.05;;;;;;;;;;4164722;34;20114;-53
2021/03/13 11:23:15;;;;;;;7.12;6.43;;;;;;;;;;4177358;34;20526;-54
2021/03/13 11:25:41;;;;;;;8.07;6.35;;;;;;;;;;4177394;34;20102;-58
2021/03/13 11:28:08;;;;;;;5.85;4.70;;;;;;;;;;4177357;34;20599;-54
2021/03/13 11:30:34;;;;;;;5.70;5.07;;;;;;;;;;4177478;34;20593;-54
2021/03/13 11:33:00;;;;;;;5.82;5.15;;;;;;;;;;4177389;34;20122;-54
2021/03/13 11:35:26;;;;;;;11.23;5.28;;;;;;;;;;4177145;34;20114;-54
2021/03/13 11:37:53;;;;;;;5.43;4.40;;;;;;;;;;4177356;34;20103;-55
2021/03/13 11:40:21;;;;;;;6.60;4.30;;;;;;;;;;4164873;34;20122;-53
2021/03/13 11:42:47;;;;;;;5.60;4.57;;;;;;;;;;4177468;34;20154;-55
2021/03/13 11:45:14;;;;;;;5.10;3.85;;;;;;;;;;4177302;34;20209;-54
2021/03/13 11:47:40;;;;;;;5.00;3.75;;;;;;;;;;4177180;34;20134;-54
2021/03/13 11:50:13;;;;;;;5.55;4.00;;;;;;;;;;4177205;34;20291;-54
2021/03/13 11:52:39;;;;;;;7.03;3.90;;;;;;;;;;4177296;34;20156;-53
2021/03/13 11:55:07;;;;;;;5.70;4.00;;;;;;;;;;4177280;34;20102;-53
2021/03/13 11:57:33;;;;;;;5.03;4.10;;;;;;;;;;4177081;34;20134;-53
2021/03/13 11:59:59;;;;;;;5.05;3.97;;;;;;;;;;4177013;34;20233;-53
2021/03/13 12:02:25;;;;;;;9.82;4.30;;;;;;;;;;4177119;34;20116;-54
2021/03/13 12:04:51;;;;;;;5.82;4.28;;;;;;;;;;4164517;34;20160;-53
2021/03/13 12:07:17;;;;;;;7.20;4.72;;;;;;;;;;4176813;34;20137;-58
2021/03/13 12:09:42;;;;;;;7.57;4.55;;;;;;;;;;4177158;34;20520;-54
2021/03/13 12:12:10;;;;;;;4.47;3.25;;;;;;;;;;4176916;34;20221;-54
2021/03/13 12:14:39;;;;;;;7.75;6.43;;;;;;;;;;4176859;34;20267;-55
2021/03/13 12:17:10;;;;;;;15.13;12.25;;;;;;;;;;4164086;34;20522;-54
2021/03/13 12:19:40;;;;;;;13.43;11.98;;;;;;;;;;4177051;34;20126;-55
2021/03/13 12:22:06;;;;;;;8.70;6.90;;;;;;;;;;4177098;34;20133;-54
2021/03/13 12:24:32;;;;;;;7.78;6.97;;;;;;;;;;4164458;34;20142;-54
2021/03/13 12:26:59;;;;;;;6.22;4.80;;;;;;;;;;4164058;34;20153;-54
2021/03/13 12:29:25;;;;;;;7.72;4.32;;;;;;;;;;4176970;34;20474;-54
2021/03/13 12:31:51;;;;;;;3.55;3.12;;;;;;;;;;4176947;34;20106;-55
2021/03/13 12:34:17;;;;;;;5.25;4.25;;;;;;;;;;4176753;34;20129;-54
2021/03/13 12:36:43;;;;;;;4.28;3.60;;;;;;;;;;4176547;34;20128;-54
2021/03/13 12:39:09;;;;;;;7.10;4.12;;;;;;;;;;4176777;34;20223;-54
2021/03/13 12:41:35;;;;;;;9.85;6.25;;;;;;;;;;4176460;34;20107;-54
2021/03/13 12:44:01;;;;;;;6.75;4.55;;;;;;;;;;4176802;34;20102;-55
2021/03/13 12:46:27;;;;;;;10.82;8.43;;;;;;;;;;4176857;34;20101;-55
2021/03/13 12:48:53;;;;;;;10.55;8.45;;;;;;;;;;4176388;34;20145;-55
2021/03/13 12:51:19;;;;;;;12.57;6.62;;;;;;;;;;4176792;34;20102;-54
2021/03/13 12:53:45;;;;;;;7.32;6.05;;;;;;;;;;4168795;34;20105;-54
2021/03/13 12:56:12;;;;;;;8.55;5.50;;;;;;;;;;4176687;34;20118;-55
2021/03/13 12:58:38;;;;;;;3.83;3.17;;;;;;;;;;4176278;34;20118;-54
2021/03/13 13:01:04;;;;;;;4.15;3.65;;;;;;;;;;4176563;34;20097;-54
2021/03/13 13:03:30;;;;;;;4.97;4.43;;;;;;;;;;4176860;34;20099;-54
2021/03/13 13:05:56;;;;;;;6.15;4.97;;;;;;;;;;4176367;34;20107;-54
2021/03/13 13:08:22;;;;;;;10.35;7.15;;;;;;;;;;4175679;34;20618;-55
2021/03/13 13:10:48;;;;;;;10.93;9.65;;;;;;;;;;4175955;34;20110;-55
2021/03/13 13:13:21;;;;;;;6.10;5.07;;;;;;;;;;4175537;34;20531;-56
2021/03/13 13:15:48;;;;;;;7.45;6.70;;;;;;;;;;4176007;34;20661;-56
2021/03/13 13:18:15;;;;;;;8.82;7.93;;;;;;;;;;4175417;34;20467;-55
2021/03/13 13:20:41;;;;;;;7.72;5.45;;;;;;;;;;4176156;34;20177;-56
2021/03/13 13:23:07;;;;;;;8.95;4.75;;;;;;;;;;4176036;34;20133;-54
2021/03/13 13:25:33;;;;;;;18.23;15.52;;;;;;;;;;4176448;34;20118;-54
2021/03/13 13:28:00;;;;;;;5.15;4.65;;;;;;;;;;4177870;34;20126;-55
2021/03/13 13:30:26;;;;;;;9.93;8.55;;;;;;;;;;4177496;34;20197;-55
2021/03/13 13:32:52;;;;;;;7.18;6.45;;;;;;;;;;4177663;34;20649;-56
2021/03/13 13:35:18;;;;;;;6.75;5.00;;;;;;;;;;4177475;34;20118;-56
2021/03/13 13:37:44;;;;;;;4.75;3.67;;;;;;;;;;4177751;34;20110;-56
2021/03/13 13:40:11;;;;;;;4.37;3.67;;;;;;;;;;4164681;34;20107;-56
2021/03/13 13:42:37;;;;;;;4.68;3.45;;;;;;;;;;4177605;34;20613;-55
2021/03/13 13:45:05;;;;;;;4.18;3.35;;;;;;;;;;4177087;34;20161;-55
2021/03/13 13:47:31;;;;;;;6.32;4.80;;;;;;;;;;4177494;34;20129;-55
2021/03/13 13:49:57;;;;;;;7.72;4.65;;;;;;;;;;4177265;34;20114;-57
2021/03/13 13:52:23;;;;;;;5.45;4.68;;;;;;;;;;4177702;34;20110;-55
2021/03/13 13:54:50;;;;;;;7.45;4.32;;;;;;;;;;4177358;34;20099;-55
2021/03/13 13:57:16;;;;;;;6.93;5.95;;;;;;;;;;4177421;34;20149;-55
2021/03/13 13:59:42;;;;;;;6.57;4.72;;;;;;;;;;4177180;34;20474;-54
2021/03/13 14:02:08;;;;;;;6.80;5.10;;;;;;;;;;4164518;34;20110;-54
2021/03/13 14:04:34;;;;;;;7.28;4.97;;;;;;;;;;4177369;34;20117;-55
2021/03/13 14:07:00;;;;;;;8.40;5.80;;;;;;;;;;4177851;34;20199;-54
2021/03/13 14:09:25;;;;;;;6.57;5.15;;;;;;;;;;4178085;34;20214;-55
2021/03/13 14:11:51;;;;;;;6.70;5.18;;;;;;;;;;4178043;34;20133;-55
2021/03/13 14:14:17;;;;;;;6.03;5.12;;;;;;;;;;4178107;34;20122;-53
2021/03/13 14:16:43;;;;;;;7.00;5.72;;;;;;;;;;4177726;34;20221;-55
2021/03/13 14:19:09;;;;;;;6.93;5.72;;;;;;;;;;4177835;34;20098;-54
2021/03/13 14:21:35;;;;;;;9.38;7.65;;;;;;;;;;4178068;34;20178;-55
2021/03/13 14:24:01;;;;;;;9.98;7.45;;;;;;;;;;4178086;34;20115;-54
2021/03/13 14:26:27;;;;;;;9.82;7.47;;;;;;;;;;4178195;34;20110;-55
2021/03/13 14:28:56;;;;;;;8.48;6.53;;;;;;;;;;4178091;34;20223;-56
2021/03/13 14:31:25;;;;;;;7.57;6.15;;;;;;;;;;4178369;34;20514;-55
2021/03/13 14:33:51;;;;;;;9.63;5.57;;;;;;;;;;4177985;34;20500;-55
2021/03/13 14:36:17;;;;;;;6.50;5.35;;;;;;;;;;4178013;34;20121;-55
2021/03/13 14:38:43;;;;;;;8.43;5.30;;;;;;;;;;4177723;34;20141;-55
2021/03/13 14:41:09;;;;;;;9.10;6.75;;;;;;;;;;4177890;34;20121;-54
2021/03/13 14:43:35;;;;;;;7.65;6.28;;;;;;;;;;4177853;34;20140;-56
2021/03/13 14:46:01;;;;;;;6.53;5.68;;;;;;;;;;4177898;34;20529;-54
2021/03/13 14:48:30;;;;;;;6.57;5.93;;;;;;;;;;4177632;34;20094;-54
2021/03/13 14:50:56;;;;;;;5.90;5.18;;;;;;;;;;4177481;34;20548;-54
2021/03/13 14:53:22;;;;;;;5.97;5.37;;;;;;;;;;4177559;34;20543;-56
2021/03/13 14:55:48;;;;;;;7.12;6.18;;;;;;;;;;4178130;34;20134;-57